FAB2318 SBMT-SBGL
Flight info
| Callsign | FAB2318 |
|---|---|
| Flight time | N/A |
| Altitude | 9000 |
| Route | DCT SCP DCT DORLU DCT UGRAD DCT |
| Aircraft | C95M/L-SDE3/C |
Departure
| Time | 2026-05-06 10:08 |
|---|---|
| Airport | Campo de Marte Airport (SBMT) |
Arrival
| Time | N/A |
|---|---|
| Airport | Rio Galeão – Tom Jobim International Airport (SBGL) |
| Time | Latitude | Longitude | Altitude | Speed | Heading |
|---|---|---|---|---|---|
| 2026-05-06 10:01 | -23.50752 | -46.63107 | 2373 ft | 0 kts | 10° |
| 2026-05-06 10:04 | -23.50754 | -46.63095 | 2373 ft | 4 kts | 168° |
| 2026-05-06 10:04 | -23.50785 | -46.63166 | 2373 ft | 20 kts | 272° |
| 2026-05-06 10:05 | -23.50781 | -46.63223 | 2373 ft | 0 kts | 277° |
| 2026-05-06 10:05 | -23.50779 | -46.63235 | 2373 ft | 8 kts | 277° |
| 2026-05-06 10:05 | -23.50820 | -46.63295 | 2373 ft | 18 kts | 187° |
| 2026-05-06 10:05 | -23.50966 | -46.63319 | 2373 ft | 23 kts | 187° |
| 2026-05-06 10:06 | -23.51072 | -46.63373 | 2373 ft | 11 kts | 277° |
| 2026-05-06 10:06 | -23.51067 | -46.63427 | 2373 ft | 5 kts | 274° |
| 2026-05-06 10:06 | -23.51052 | -46.63556 | 2373 ft | 29 kts | 278° |
| 2026-05-06 10:06 | -23.51006 | -46.63838 | 2373 ft | 46 kts | 280° |
| 2026-05-06 10:07 | -23.50952 | -46.64165 | 2373 ft | 42 kts | 281° |
| 2026-05-06 10:07 | -23.50896 | -46.64505 | 2373 ft | 41 kts | 281° |
| 2026-05-06 10:07 | -23.50826 | -46.64646 | 2373 ft | 17 kts | 13° |
| 2026-05-06 10:07 | -23.50774 | -46.64554 | 2373 ft | 12 kts | 96° |
| 2026-05-06 10:08 | -23.50805 | -46.64354 | 2373 ft | 49 kts | 99° |
| 2026-05-06 10:08 | -23.50902 | -46.63762 | 2376 ft | 106 kts | 99° |
| 2026-05-06 10:08 | -23.51029 | -46.62967 | 2765 ft | 107 kts | 97° |
| 2026-05-06 10:08 | -23.51123 | -46.62142 | 3191 ft | 113 kts | 94° |
| 2026-05-06 10:09 | -23.51238 | -46.61217 | 3475 ft | 135 kts | 98° |
| 2026-05-06 10:09 | -23.51434 | -46.60145 | 3739 ft | 152 kts | 101° |
| 2026-05-06 10:09 | -23.51459 | -46.58967 | 3980 ft | 163 kts | 78° |
| 2026-05-06 10:09 | -23.51129 | -46.57734 | 4231 ft | 174 kts | 69° |
| 2026-05-06 10:10 | -23.50671 | -46.56474 | 4449 ft | 181 kts | 67° |
| 2026-05-06 10:10 | -23.50180 | -46.55210 | 4655 ft | 185 kts | 67° |
| 2026-05-06 10:10 | -23.49664 | -46.53897 | 4862 ft | 188 kts | 67° |
| 2026-05-06 10:10 | -23.49148 | -46.52582 | 5064 ft | 191 kts | 67° |
| 2026-05-06 10:11 | -23.48627 | -46.51246 | 5267 ft | 192 kts | 67° |
| 2026-05-06 10:11 | -23.48114 | -46.49924 | 5466 ft | 193 kts | 68° |
| 2026-05-06 10:11 | -23.47588 | -46.48564 | 5669 ft | 193 kts | 68° |
| 2026-05-06 10:11 | -23.47082 | -46.47254 | 5862 ft | 194 kts | 68° |
| 2026-05-06 10:12 | -23.46548 | -46.45872 | 6065 ft | 194 kts | 68° |
| 2026-05-06 10:12 | -23.46018 | -46.44497 | 6267 ft | 195 kts | 68° |
| 2026-05-06 10:12 | -23.45489 | -46.43126 | 6468 ft | 195 kts | 68° |
| 2026-05-06 10:12 | -23.45123 | -46.42176 | 6607 ft | 196 kts | 68° |
| 2026-05-06 10:13 | -23.44746 | -46.41199 | 6749 ft | 196 kts | 68° |
| 2026-05-06 10:13 | -23.44038 | -46.39361 | 7017 ft | 197 kts | 67° |
| 2026-05-06 10:13 | -23.43679 | -46.38432 | 7153 ft | 197 kts | 67° |
| 2026-05-06 10:13 | -23.42974 | -46.36605 | 7420 ft | 197 kts | 67° |
| 2026-05-06 10:14 | -23.42625 | -46.35703 | 7552 ft | 197 kts | 67° |
| 2026-05-06 10:14 | -23.42092 | -46.34325 | 7752 ft | 197 kts | 67° |
| 2026-05-06 10:14 | -23.41558 | -46.32946 | 7953 ft | 197 kts | 67° |
| 2026-05-06 10:14 | -23.41020 | -46.31559 | 8156 ft | 197 kts | 67° |
| 2026-05-06 10:15 | -23.40492 | -46.30193 | 8353 ft | 197 kts | 67° |
| 2026-05-06 10:15 | -23.39957 | -46.28808 | 8552 ft | 197 kts | 67° |
| 2026-05-06 10:15 | -23.39428 | -46.27445 | 8748 ft | 197 kts | 68° |
| 2026-05-06 10:15 | -23.38890 | -46.26058 | 8953 ft | 197 kts | 68° |
| 2026-05-06 10:16 | -23.38357 | -46.24685 | 9127 ft | 199 kts | 68° |
| 2026-05-06 10:16 | -23.37810 | -46.23273 | 9196 ft | 205 kts | 68° |
| 2026-05-06 10:16 | -23.37239 | -46.21792 | 9062 ft | 218 kts | 68° |
| 2026-05-06 10:16 | -23.36647 | -46.20259 | 9011 ft | 224 kts | 68° |
| 2026-05-06 10:17 | -23.36037 | -46.18683 | 9007 ft | 226 kts | 68° |
| 2026-05-06 10:17 | -23.35420 | -46.17094 | 9002 ft | 227 kts | 68° |
| 2026-05-06 10:17 | -23.34806 | -46.15517 | 8994 ft | 229 kts | 68° |
| 2026-05-06 10:17 | -23.34180 | -46.13907 | 8990 ft | 230 kts | 68° |
| 2026-05-06 10:18 | -23.33562 | -46.12315 | 8989 ft | 231 kts | 68° |
| 2026-05-06 10:18 | -23.32930 | -46.10687 | 8988 ft | 232 kts | 68° |
| 2026-05-06 10:18 | -23.32307 | -46.09083 | 8987 ft | 232 kts | 68° |
| 2026-05-06 10:18 | -23.31676 | -46.07459 | 9003 ft | 232 kts | 68° |
| 2026-05-06 10:19 | -23.31050 | -46.05849 | 9005 ft | 233 kts | 68° |
| 2026-05-06 10:19 | -23.30419 | -46.04226 | 9007 ft | 233 kts | 68° |
| 2026-05-06 10:19 | -23.29790 | -46.02609 | 9008 ft | 233 kts | 68° |
| 2026-05-06 10:19 | -23.29153 | -46.00971 | 9008 ft | 234 kts | 68° |
| 2026-05-06 10:20 | -23.28518 | -45.99342 | 9008 ft | 234 kts | 68° |
| 2026-05-06 10:20 | -23.27886 | -45.97718 | 9008 ft | 234 kts | 68° |
| 2026-05-06 10:20 | -23.27249 | -45.96083 | 9008 ft | 234 kts | 68° |
| 2026-05-06 10:20 | -23.26609 | -45.94443 | 9008 ft | 234 kts | 68° |
| 2026-05-06 10:21 | -23.25973 | -45.92811 | 9008 ft | 235 kts | 68° |
| 2026-05-06 10:21 | -23.25340 | -45.91188 | 9009 ft | 235 kts | 68° |
| 2026-05-06 10:21 | -23.24710 | -45.89572 | 9010 ft | 235 kts | 68° |
| 2026-05-06 10:21 | -23.24095 | -45.87919 | 9008 ft | 235 kts | 74° |
| 2026-05-06 10:22 | -23.23819 | -45.86181 | 9017 ft | 233 kts | 88° |
| 2026-05-06 10:22 | -23.23850 | -45.84409 | 9014 ft | 233 kts | 96° |
| 2026-05-06 10:22 | -23.24056 | -45.82674 | 9011 ft | 233 kts | 100° |
| 2026-05-06 10:22 | -23.24360 | -45.80936 | 9010 ft | 233 kts | 103° |
| 2026-05-06 10:23 | -23.24710 | -45.79224 | 9010 ft | 233 kts | 104° |
| 2026-05-06 10:23 | -23.25081 | -45.77500 | 9010 ft | 233 kts | 104° |
| 2026-05-06 10:23 | -23.25454 | -45.75796 | 9009 ft | 233 kts | 104° |